Time;durP1;ratioP1;P1;durP2;ratioP2;P2;SDS_P1;SDS_P2;PMS_P1;PMS_P2;Temp;Humidity;BMP_temperature;BMP_pressure;BME280_temperature;BME280_humidity;BME280_pressure;Samples;Min_cycle;Max_cycle;Signal;HPM_P1;HPM_P2
2022/04/21 00:01:38;;;;;;;4.72;3.20;;;;;;;7.60;nan;98802.06;5047443;28;20480;-75
2022/04/21 00:04:04;;;;;;;3.17;2.20;;;;;;;7.56;nan;98804.97;5053628;28;20221;-75
2022/04/21 00:06:29;;;;;;;3.90;3.30;;;;;;;7.50;nan;98806.19;5065980;28;20224;-75
2022/04/21 00:08:54;;;;;;;3.60;2.83;;;;;;;7.41;nan;98802.41;5062787;28;20244;-75
2022/04/21 00:11:21;;;;;;;4.23;3.33;;;;;;;7.36;nan;98803.63;5046230;28;20229;-75
2022/04/21 00:13:47;;;;;;;4.32;3.38;;;;;;;7.28;nan;98796.28;5043818;28;20260;-75
2022/04/21 00:16:12;;;;;;;3.07;2.77;;;;;;;7.16;nan;98795.28;5045591;28;20226;-74
2022/04/21 00:18:38;;;;;;;2.40;2.20;;;;;;;7.01;nan;98806.69;5051608;28;20694;-74
2022/04/21 00:21:05;;;;;;;8.45;3.25;;;;;;;6.87;nan;98797.09;5047219;28;20527;-74
2022/04/21 00:23:30;;;;;;;4.15;3.55;;;;;;;6.89;nan;98797.84;5054762;28;20225;-75
2022/04/21 00:26:01;;;;;;;4.77;3.67;;;;;;;6.92;nan;98795.03;5045619;28;20259;-75
2022/04/21 00:28:31;;;;;;;4.78;3.85;;;;;;;6.94;nan;98802.75;5044722;28;20293;-75
2022/04/21 00:30:57;;;;;;;3.35;3.05;;;;;;;6.86;nan;98809.31;5045746;28;20685;-75
2022/04/21 00:33:23;;;;;;;6.47;3.55;;;;;;;6.86;nan;98808.47;5043902;28;20468;-73
2022/04/21 00:35:48;;;;;;;3.13;2.80;;;;;;;6.85;nan;98810.22;5046463;28;20302;-74
2022/04/21 00:38:14;;;;;;;5.30;2.83;;;;;;;6.83;nan;98806.03;5061309;28;20228;-74
2022/04/21 00:40:39;;;;;;;4.77;3.10;;;;;;;6.81;nan;98800.91;5045017;28;20592;-75
2022/04/21 00:43:05;;;;;;;4.10;3.70;;;;;;;6.82;nan;98801.75;5059906;28;20214;-74
2022/04/21 00:45:33;;;;;;;3.53;3.20;;;;;;;6.81;nan;98797.47;5044939;28;20214;-75
2022/04/21 00:48:01;;;;;;;4.93;3.70;;;;;;;6.79;nan;98801.94;5044790;28;20459;-75
2022/04/21 00:50:34;;;;;;;3.63;3.33;;;;;;;6.75;nan;98793.47;5054596;28;20554;-75
2022/04/21 00:53:01;;;;;;;4.25;2.95;;;;;;;6.77;nan;98798.56;5064813;28;20228;-75
2022/04/21 00:55:27;;;;;;;3.30;3.00;;;;;;;6.74;nan;98793.53;5046816;28;20323;-75
2022/04/21 00:57:54;;;;;;;6.90;4.50;;;;;;;6.72;nan;98798.00;5049689;28;20241;-75
2022/04/21 01:00:20;;;;;;;6.63;3.60;;;;;;;6.74;nan;98793.53;5046051;28;20495;-75
2022/04/21 01:02:54;;;;;;;4.55;3.45;;;;;;;6.69;nan;98790.38;5063567;28;20555;-75
2022/04/21 01:05:26;;;;;;;18.08;14.82;;;;;;;6.55;nan;98799.88;5064312;28;20290;-75
2022/04/21 01:07:53;;;;;;;6.50;5.22;;;;;;;6.42;nan;98788.50;5063562;28;20857;-75
2022/04/21 01:10:19;;;;;;;6.70;4.25;;;;;;;6.33;nan;98789.88;5064949;28;20201;-75
2022/04/21 01:12:45;;;;;;;4.80;3.60;;;;;;;6.31;nan;98796.94;5064327;28;20827;-75
2022/04/21 01:15:11;;;;;;;5.25;4.20;;;;;;;6.31;nan;98794.34;5064059;28;20733;-75
2022/04/21 01:17:39;;;;;;;4.72;3.55;;;;;;;6.34;nan;98790.72;5046837;28;20229;-75
2022/04/21 01:20:06;;;;;;;49.35;44.80;;;;;;;6.37;nan;98786.19;5062353;28;20200;-75
2022/04/21 01:22:32;;;;;;;4.85;3.22;;;;;;;6.41;nan;98774.63;5049727;28;20197;-74
2022/04/21 01:24:57;;;;;;;4.77;3.80;;;;;;;6.40;nan;98780.78;5041668;28;20475;-75
2022/04/21 01:27:27;;;;;;;4.40;4.00;;;;;;;6.36;nan;98787.09;5043824;28;20209;-75
2022/04/21 01:29:53;;;;;;;62.65;40.95;;;;;;;6.28;nan;98776.28;5043414;28;20201;-75
2022/04/21 01:32:19;;;;;;;5.70;3.55;;;;;;;6.22;nan;98779.25;5054775;28;20227;-75
2022/04/21 01:34:44;;;;;;;4.47;3.60;;;;;;;6.20;nan;98774.13;5053756;28;20602;-74
2022/04/21 01:42:37;;;;;;;6.00;3.88;;;;;;;6.12;nan;98773.72;5044271;28;20677;-75
2022/04/21 01:45:03;;;;;;;3.50;3.20;;;;;;;6.06;nan;98786.28;5054572;28;20229;-75
2022/04/21 01:47:28;;;;;;;7.63;6.00;;;;;;;5.95;nan;98779.94;5055300;28;20221;-75
2022/04/21 01:49:53;;;;;;;4.33;3.83;;;;;;;5.89;nan;98788.09;5058060;28;20212;-75
2022/04/21 01:52:19;;;;;;;3.90;3.53;;;;;;;5.85;nan;98781.34;5061892;28;20547;-75
2022/04/21 01:54:44;;;;;;;5.10;3.50;;;;;;;5.84;nan;98787.50;5084067;22;20252;-74
2022/04/21 01:57:10;;;;;;;5.03;4.03;;;;;;;5.85;nan;98790.94;5074608;28;20220;-74
2022/04/21 01:59:35;;;;;;;3.60;3.30;;;;;;;5.86;nan;98790.88;5080980;28;20215;-74
2022/04/21 02:02:01;;;;;;;5.27;4.00;;;;;;;5.85;nan;98789.16;5082536;28;20507;-74
2022/04/21 02:04:26;;;;;;;3.20;2.83;;;;;;;5.84;nan;98791.88;5080128;28;20820;-74
2022/04/21 02:06:52;;;;;;;5.70;4.13;;;;;;;5.85;nan;98790.94;5085622;28;20199;-73
2022/04/21 02:09:17;;;;;;;5.20;3.77;;;;;;;5.85;nan;98785.72;5084721;28;20655;-74
2022/04/21 02:11:43;;;;;;;4.07;3.67;;;;;;;5.82;nan;98781.53;5086109;28;20212;-74
2022/04/21 02:14:09;;;;;;;3.20;2.90;;;;;;;5.80;nan;98788.59;5086583;28;20360;-74
2022/04/21 02:16:34;;;;;;;3.60;3.30;;;;;;;5.75;nan;98788.00;5089221;28;20314;-74
2022/04/21 02:19:00;;;;;;;4.50;3.63;;;;;;;5.68;nan;98787.53;5084798;28;20303;-74
2022/04/21 02:21:25;;;;;;;4.37;3.70;;;;;;;5.66;nan;98784.16;5085318;28;20667;-74
2022/04/21 02:23:50;;;;;;;4.57;3.80;;;;;;;5.66;nan;98784.16;5092938;28;20222;-74
2022/04/21 02:26:16;;;;;;;6.27;4.27;;;;;;;5.64;nan;98778.19;5105617;28;20203;-74
2022/04/21 02:28:41;;;;;;;3.70;3.40;;;;;;;5.63;nan;98786.13;5109180;28;20286;-74
2022/04/21 02:31:07;;;;;;;5.93;4.60;;;;;;;5.55;nan;98776.13;5108711;28;20191;-74
2022/04/21 02:33:32;;;;;;;5.67;3.67;;;;;;;5.46;nan;98793.13;5088333;28;20255;-74
2022/04/21 02:35:58;;;;;;;3.90;3.60;;;;;;;5.33;nan;98785.13;5084283;28;20232;-74
2022/04/21 02:38:23;;;;;;;3.90;3.50;;;;;;;5.23;nan;98785.72;5084315;28;20196;-74
2022/04/21 02:40:49;;;;;;;4.40;3.23;;;;;;;5.14;nan;98788.84;5085523;28;20207;-74
2022/04/21 02:43:14;;;;;;;3.57;3.27;;;;;;;5.02;nan;98775.59;5089096;28;20204;-74
2022/04/21 02:45:41;;;;;;;3.57;2.77;;;;;;;4.99;nan;98778.31;5099824;28;20235;-74
2022/04/21 02:48:08;;;;;;;6.18;4.50;;;;;;;4.92;nan;98782.19;5113036;28;20208;-74
2022/04/21 02:50:33;;;;;;;26.13;23.30;;;;;;;4.87;nan;98777.22;5113649;28;20204;-74
2022/04/21 02:52:59;;;;;;;9.63;8.83;;;;;;;4.85;nan;98771.25;5094869;28;20291;-74
2022/04/21 02:58:09;;;;;;;5.97;3.97;;;;;;;4.93;nan;98770.84;5088033;28;20269;-74
2022/04/21 03:00:34;;;;;;;4.63;4.18;;;;;;;4.97;nan;98766.31;5087237;28;20201;-74
2022/04/21 03:03:00;;;;;;;5.43;3.70;;;;;;;4.99;nan;98764.47;5087610;28;20196;-74
2022/04/21 03:05:25;;;;;;;12.17;4.27;;;;;;;4.98;nan;98761.03;5087094;28;20223;-74
2022/04/21 03:07:51;;;;;;;4.57;4.03;;;;;;;4.97;nan;98761.09;5087617;28;20465;-74
2022/04/21 03:10:16;;;;;;;6.17;3.43;;;;;;;4.97;nan;98766.31;5087108;28;20219;-74
2022/04/21 03:12:42;;;;;;;5.60;4.10;;;;;;;4.92;nan;98763.16;5087536;28;20723;-74
2022/04/21 03:15:11;;;;;;;3.53;2.97;;;;;;;4.83;nan;98765.31;5087045;28;20224;-74
2022/04/21 03:17:36;;;;;;;3.65;3.00;;;;;;;4.70;nan;98759.09;5086904;28;20230;-74
2022/04/21 03:20:02;;;;;;;5.07;3.80;;;;;;;4.60;nan;98758.72;5087526;28;20208;-74
2022/04/21 03:25:11;;;;;;;4.57;3.92;;;;;;;4.40;nan;98756.31;5086978;28;20300;-74
2022/04/21 03:27:37;;;;;;;3.93;3.43;;;;;;;4.26;nan;98764.00;5087388;28;20676;-74
2022/04/21 03:30:06;;;;;;;6.30;4.07;;;;;;;4.18;nan;98765.22;5086222;28;20493;-74
2022/04/21 03:32:32;;;;;;;6.88;4.22;;;;;;;4.07;nan;98770.13;5086046;28;20567;-75
2022/04/21 03:34:59;;;;;;;4.23;3.67;;;;;;;4.01;nan;98764.41;5087093;28;20322;-74
2022/04/21 03:37:24;;;;;;;5.15;3.50;;;;;;;3.99;nan;98767.09;5086349;28;20207;-74
2022/04/21 03:39:50;;;;;;;4.10;3.70;;;;;;;3.93;nan;98767.41;5086927;28;20613;-74
2022/04/21 03:42:20;;;;;;;9.00;4.70;;;;;;;3.87;nan;98778.09;5085925;28;20216;-74
2022/04/21 03:44:46;;;;;;;4.00;3.15;;;;;;;3.87;nan;98778.09;5084241;28;20251;-74
2022/04/21 03:47:11;;;;;;;4.47;3.47;;;;;;;3.86;nan;98772.06;5087002;28;20662;-74
2022/04/21 03:49:36;;;;;;;3.30;3.10;;;;;;;3.84;nan;98776.50;5085805;28;20226;-74
2022/04/21 03:52:02;;;;;;;4.90;3.60;;;;;;;3.75;nan;98776.94;5086217;28;20203;-74
2022/04/21 03:54:28;;;;;;;6.37;3.03;;;;;;;3.76;nan;98776.03;5085696;28;20300;-74
2022/04/21 03:56:54;;;;;;;3.60;3.27;;;;;;;3.79;nan;98764.66;5086498;28;20227;-75
2022/04/21 03:59:22;;;;;;;5.28;4.25;;;;;;;3.82;nan;98772.28;5085736;28;20204;-75
2022/04/21 04:01:47;;;;;;;4.15;3.80;;;;;;;3.84;nan;98768.69;5086350;28;20645;-74
2022/04/21 04:04:13;;;;;;;4.30;3.73;;;;;;;3.88;nan;98754.63;5086429;28;20826;-74
2022/04/21 04:12:09;;;;;;;6.40;5.28;;;;;;;3.91;nan;98753.63;5086459;28;20210;-75
2022/04/21 04:14:34;;;;;;;8.10;4.35;;;;;;;3.92;nan;98757.94;5086198;28;20224;-75
2022/04/21 04:17:00;;;;;;;9.00;4.40;;;;;;;3.90;nan;98757.16;5086171;28;20268;-75
2022/04/21 04:19:26;;;;;;;5.83;3.57;;;;;;;3.91;nan;98753.63;5085924;28;20212;-75
2022/04/21 04:21:51;;;;;;;6.43;4.20;;;;;;;3.88;nan;98759.81;5086413;28;20192;-75
2022/04/21 04:24:17;;;;;;;7.00;5.20;;;;;;;3.85;nan;98759.16;5085553;28;20868;-74
2022/04/21 04:26:42;;;;;;;4.97;4.47;;;;;;;3.78;nan;98758.63;5086328;28;20220;-75
2022/04/21 04:29:09;;;;;;;5.57;4.87;;;;;;;3.77;nan;98764.72;5085621;28;20227;-74
2022/04/21 04:31:36;;;;;;;7.82;5.55;;;;;;;3.71;nan;98755.47;5085837;28;20196;-75
2022/04/21 04:34:02;;;;;;;5.28;4.45;;;;;;;3.69;nan;98765.09;5085808;28;20220;-75
2022/04/21 04:36:28;;;;;;;6.78;4.50;;;;;;;3.66;nan;98765.25;5085717;28;20671;-75
2022/04/21 04:38:54;;;;;;;4.93;4.38;;;;;;;3.65;nan;98760.97;5085148;28;20223;-75
2022/04/21 04:44:04;;;;;;;8.00;5.10;;;;;;;3.70;nan;98763.31;5085478;28;20547;-75
2022/04/21 04:46:35;;;;;;;10.40;5.00;;;;;;;3.74;nan;98763.09;5085512;28;20216;-75
2022/04/21 04:49:02;;;;;;;9.95;4.88;;;;;;;3.81;nan;98768.00;5068349;28;20477;-75
2022/04/21 04:51:27;;;;;;;6.68;4.75;;;;;;;3.79;nan;98767.25;5087399;28;20211;-74
2022/04/21 04:53:53;;;;;;;6.07;5.47;;;;;;;3.74;nan;98757.91;5085829;28;20196;-75
2022/04/21 04:56:21;;;;;;;6.20;5.40;;;;;;;3.74;nan;98770.91;5086660;28;20278;-75
2022/04/21 04:58:46;;;;;;;8.27;6.88;;;;;;;3.79;nan;98765.50;5040276;28;20491;-75
2022/04/21 05:01:12;;;;;;;8.70;5.40;;;;;;;3.82;nan;98759.31;5045945;28;20209;-75
2022/04/21 05:03:39;;;;;;;5.83;5.23;;;;;;;3.89;nan;98760.66;5043763;28;20213;-75
2022/04/21 05:06:05;;;;;;;5.93;5.43;;;;;;;4.06;nan;98758.06;5044487;28;20502;-75
2022/04/21 05:08:30;;;;;;;10.30;6.00;;;;;;;4.53;nan;98757.38;5044677;28;20625;-75
2022/04/21 05:10:55;;;;;;;8.10;6.20;;;;;;;5.11;nan;98753.41;5045407;28;20533;-75
2022/04/21 05:13:21;;;;;;;9.57;6.30;;;;;;;5.80;nan;98752.09;5045549;28;20206;-75
2022/04/21 05:15:46;;;;;;;6.00;4.73;;;;;;;6.45;nan;98753.56;5063220;28;20245;-75
2022/04/21 05:18:12;;;;;;;8.30;5.13;;;;;;;7.02;nan;98761.34;5047003;28;21199;-75
2022/04/21 05:20:38;;;;;;;6.67;5.33;;;;;;;7.49;nan;98755.72;5065164;28;20288;-74
2022/04/21 05:23:05;;;;;;;7.40;6.73;;;;;;;7.72;nan;98759.47;5065032;28;20854;-74
2022/04/21 05:25:33;;;;;;;7.05;6.10;;;;;;;8.00;nan;98754.19;5065262;28;20524;-75
2022/04/21 05:27:59;;;;;;;9.00;5.90;;;;;;;8.33;nan;98748.44;5063988;28;20204;-75
2022/04/21 05:33:10;;;;;;;17.77;7.82;;;;;;;9.03;nan;98740.94;5064072;28;20467;-75
2022/04/21 05:35:36;;;;;;;11.77;6.90;;;;;;;9.23;nan;98734.28;5063980;28;20256;-75
2022/04/21 05:38:02;;;;;;;13.65;7.00;;;;;;;9.42;nan;98733.78;5064727;28;20205;-75
2022/04/21 05:40:28;;;;;;;7.97;5.80;;;;;;;9.36;nan;98736.84;5046374;28;20564;-75
2022/04/21 05:42:58;;;;;;;7.30;5.43;;;;;;;9.14;nan;98739.34;5064447;28;20815;-75
2022/04/21 05:45:24;;;;;;;8.38;5.70;;;;;;;9.15;nan;98743.63;5064759;28;20228;-75
2022/04/21 05:47:49;;;;;;;10.37;6.90;;;;;;;9.19;nan;98738.06;5064115;28;20212;-75
2022/04/21 05:50:15;;;;;;;9.13;5.67;;;;;;;9.06;nan;98740.72;5064631;28;20258;-75
2022/04/21 05:52:44;;;;;;;8.43;5.77;;;;;;;8.81;nan;98735.56;5067117;28;20224;-75
2022/04/21 05:55:13;;;;;;;9.38;6.07;;;;;;;8.60;nan;98746.56;5063463;28;20487;-74
2022/04/21 05:57:40;;;;;;;9.48;6.47;;;;;;;8.47;nan;98740.50;5064479;28;20767;-75
2022/04/21 06:00:07;;;;;;;8.00;7.20;;;;;;;8.36;nan;98740.38;5065312;28;20204;-75
2022/04/21 06:02:37;;;;;;;6.80;6.10;;;;;;;8.27;nan;98734.00;5065180;28;20803;-74
2022/04/21 06:05:04;;;;;;;6.23;5.53;;;;;;;8.25;nan;98737.66;5064922;28;20316;-75
2022/04/21 06:07:30;;;;;;;7.15;6.30;;;;;;;8.48;nan;98738.72;5065317;28;20224;-74
2022/04/21 06:09:55;;;;;;;5.40;4.90;;;;;;;8.90;nan;98728.84;5065360;28;20213;-75
2022/04/21 06:12:24;;;;;;;7.80;5.90;;;;;;;9.36;nan;98728.97;5064602;28;20209;-75
2022/04/21 06:14:49;;;;;;;7.57;6.20;;;;;;;9.91;nan;98726.69;5047618;28;20626;-75
2022/04/21 06:17:15;;;;;;;7.43;5.63;;;;;;;10.47;nan;98726.81;5065688;28;20711;-75
2022/04/21 06:19:40;;;;;;;6.80;6.20;;;;;;;10.92;nan;98726.81;5066798;28;20216;-75
2022/04/21 06:22:05;;;;;;;8.03;6.77;;;;;;;11.27;nan;98721.38;5065335;28;20580;-74
2022/04/21 06:24:31;;;;;;;6.00;5.40;;;;;;;11.65;nan;98713.94;5047130;28;20244;-76
2022/04/21 06:26:56;;;;;;;6.63;6.03;;;;;;;12.09;nan;98712.06;5065427;28;20201;-76
2022/04/21 06:29:22;;;;;;;6.20;5.40;;;;;;;12.57;nan;98720.22;5064006;28;20317;-76
2022/04/21 06:31:47;;;;;;;7.93;6.40;;;;;;;12.90;nan;98718.25;5064481;28;20190;-76
2022/04/21 06:34:12;;;;;;;6.50;5.90;;;;;;;13.21;nan;98700.59;5063817;28;20228;-76
2022/04/21 06:36:38;;;;;;;20.17;18.33;;;;;;;13.34;nan;98704.78;5064915;28;20683;-75
2022/04/21 06:39:03;;;;;;;8.40;6.70;;;;;;;13.58;nan;98701.75;5064808;28;20209;-75
2022/04/21 06:41:29;;;;;;;6.60;6.00;;;;;;;13.70;nan;98696.19;5064608;28;20215;-74
2022/04/21 06:49:23;;;;;;;7.60;5.85;;;;;;;14.16;nan;98704.34;5064920;28;20248;-75
2022/04/21 06:51:48;;;;;;;9.00;5.90;;;;;;;14.35;nan;98699.00;5064533;28;20724;-75
2022/04/21 06:54:14;;;;;;;8.87;6.70;;;;;;;14.08;nan;98704.22;5064053;28;20268;-75
2022/04/21 06:56:39;;;;;;;7.87;6.43;;;;;;;13.55;nan;98707.31;5064305;28;20220;-75
2022/04/21 06:59:07;;;;;;;6.40;5.80;;;;;;;13.04;nan;98709.13;5064577;28;20220;-75
2022/04/21 07:01:35;;;;;;;15.00;13.90;;;;;;;12.53;nan;98710.06;5064308;28;20204;-74
2022/04/21 07:04:00;;;;;;;9.07;7.05;;;;;;;12.04;nan;98704.56;5065133;28;20224;-75
2022/04/21 07:06:26;;;;;;;6.07;5.57;;;;;;;11.48;nan;98713.53;5065580;28;20538;-75
2022/04/21 07:08:51;;;;;;;7.37;6.43;;;;;;;11.13;nan;98711.13;5065250;28;20217;-75
2022/04/21 07:11:20;;;;;;;6.70;5.93;;;;;;;10.96;nan;98701.94;5064195;28;20310;-75
2022/04/21 07:13:45;;;;;;;7.65;6.85;;;;;;;11.19;nan;98713.25;5065180;28;20235;-75
2022/04/21 07:16:11;;;;;;;8.07;6.90;;;;;;;11.65;nan;98703.44;5064259;28;20209;-75
2022/04/21 07:18:36;;;;;;;6.87;6.17;;;;;;;11.98;nan;98698.97;5064106;28;20635;-75
2022/04/21 07:21:03;;;;;;;8.00;6.07;;;;;;;12.54;nan;98706.50;5066232;28;20265;-75
2022/04/21 07:23:29;;;;;;;7.90;5.82;;;;;;;13.34;nan;98692.44;5065408;28;20263;-75
2022/04/21 07:25:54;;;;;;;7.80;6.07;;;;;;;13.93;nan;98680.91;5066403;28;20566;-75
2022/04/21 07:28:20;;;;;;;7.70;5.73;;;;;;;14.47;nan;98691.72;5067912;28;20602;-75
2022/04/21 07:30:46;;;;;;;7.70;6.70;;;;;;;15.07;nan;98686.03;5070784;28;20234;-75
2022/04/21 07:33:12;;;;;;;7.30;6.70;;;;;;;15.64;nan;98676.00;5072782;28;20428;-73
2022/04/21 07:35:37;;;;;;;8.10;6.67;;;;;;;16.09;nan;98676.84;5072864;28;20267;-75
2022/04/21 07:38:03;;;;;;;8.27;7.43;;;;;;;16.23;nan;98680.75;5072105;28;20216;-74
2022/04/21 07:40:29;;;;;;;10.45;7.43;;;;;;;16.34;nan;98683.16;5070594;28;20248;-73
2022/04/21 07:42:54;;;;;;;8.37;6.93;;;;;;;16.61;nan;98674.19;5070950;28;20314;-74
2022/04/21 07:45:20;;;;;;;7.10;6.40;;;;;;;16.92;nan;98674.47;5070163;28;20277;-74
2022/04/21 07:47:45;;;;;;;6.93;6.20;;;;;;;17.27;nan;98677.06;5070699;28;20209;-74
2022/04/21 07:50:11;;;;;;;7.97;6.83;;;;;;;17.65;nan;98672.94;5071069;28;20212;-74
2022/04/21 07:55:25;;;;;;;6.20;5.70;;;;;;;18.00;nan;98678.94;5094701;23;20262;-73
2022/04/21 07:57:53;;;;;;;7.30;6.47;;;;;;;18.21;nan;98668.63;5047460;28;20495;-73
2022/04/21 08:00:19;;;;;;;11.50;6.50;;;;;;;18.40;nan;98664.75;5051180;28;20974;-73
2022/04/21 08:02:46;;;;;;;7.07;6.27;;;;;;;18.55;nan;98667.50;5053834;28;20474;-74
2022/04/21 08:05:14;;;;;;;9.00;6.60;;;;;;;18.56;nan;98667.34;5054144;28;20975;-74
2022/04/21 08:07:40;;;;;;;8.63;7.03;;;;;;;18.70;nan;98663.13;5054115;28;20462;-73
2022/04/21 08:10:08;;;;;;;7.83;6.60;;;;;;;18.77;nan;98661.47;5059770;28;20463;-75
2022/04/21 08:12:59;;;;;;;6.90;6.20;;;;;;;18.60;nan;98662.50;5045088;28;21292;-75
2022/04/21 08:15:30;;;;;;;7.00;6.40;;;;;;;18.60;nan;98662.50;5042299;28;20495;-74
2022/04/21 08:17:59;;;;;;;5.80;5.20;;;;;;;18.74;nan;98651.19;5058393;28;20458;-74
2022/04/21 08:20:27;;;;;;;6.43;5.60;;;;;;;18.94;nan;98656.09;5057870;28;20455;-73
2022/04/21 08:22:53;;;;;;;8.43;6.00;;;;;;;19.09;nan;98653.50;5052701;28;20517;-75
2022/04/21 08:33:34;;;;;;;7.80;6.30;;;;;;;19.28;nan;98641.56;5065107;28;20454;-74
2022/04/21 08:36:00;;;;;;;7.40;6.47;;;;;;;18.99;nan;98643.09;5060787;28;20483;-73
2022/04/21 08:38:27;;;;;;;6.17;5.60;;;;;;;18.91;nan;98640.47;5045712;28;20466;-75
2022/04/21 08:40:54;;;;;;;6.23;5.73;;;;;;;18.92;nan;98644.78;5046016;28;20516;-74
2022/04/21 08:43:21;;;;;;;9.13;6.40;;;;;;;18.85;nan;98641.16;5056930;28;20489;-73
2022/04/21 08:45:48;;;;;;;6.73;6.07;;;;;;;18.88;nan;98638.97;5045190;28;20479;-74
2022/04/21 08:48:19;;;;;;;6.43;5.93;;;;;;;18.99;nan;98646.56;5049897;28;20787;-75
2022/04/21 08:50:45;;;;;;;7.20;5.63;;;;;;;19.09;nan;98642.84;5052955;28;20576;-73
2022/04/21 08:53:14;;;;;;;6.47;5.77;;;;;;;19.10;nan;98624.03;5054957;28;20443;-74
2022/04/21 08:55:39;;;;;;;8.70;5.87;;;;;;;19.13;nan;98629.00;5060060;28;20632;-75
2022/04/21 08:58:05;;;;;;;12.13;6.80;;;;;;;19.01;nan;98638.41;5050615;28;21081;-73
2022/04/21 09:00:31;;;;;;;8.43;6.47;;;;;;;18.90;nan;98634.31;5056462;28;20201;-74
2022/04/21 09:03:03;;;;;;;7.97;6.07;;;;;;;18.65;nan;98633.56;5046768;28;20593;-74
2022/04/21 09:05:30;;;;;;;6.93;5.80;;;;;;;18.52;nan;98631.47;5059947;28;20463;-73
2022/04/21 09:07:59;;;;;;;6.13;5.53;;;;;;;18.37;nan;98622.56;5054477;28;20477;-74
2022/04/21 09:10:27;;;;;;;6.70;5.97;;;;;;;18.11;nan;98620.13;5064934;28;20447;-75
2022/04/21 09:12:55;;;;;;;7.63;5.90;;;;;;;17.87;nan;98619.16;5060617;28;20470;-74
2022/04/21 09:15:43;;;;;;;7.00;6.37;;;;;;;17.78;nan;98620.16;5055698;28;20475;-74
2022/04/21 09:18:13;;;;;;;5.73;5.13;;;;;;;17.76;nan;98619.50;5063688;28;20804;-75
2022/04/21 09:20:43;;;;;;;7.70;6.00;;;;;;;17.71;nan;98621.81;5059946;28;20464;-75
2022/04/21 09:23:10;;;;;;;7.00;5.90;;;;;;;17.80;nan;98614.72;5056796;28;20514;-75
2022/04/21 09:25:48;;;;;;;7.90;5.90;;;;;;;18.00;nan;98604.53;5050924;28;20493;-74
2022/04/21 09:28:25;;;;;;;8.40;5.50;;;;;;;17.99;nan;98610.88;5050180;28;20461;-75
2022/04/21 09:30:52;;;;;;;6.03;5.33;;;;;;;18.02;nan;98613.19;5045932;28;20490;-75
2022/04/21 09:33:31;;;;;;;6.70;6.10;;;;;;;18.06;nan;98604.69;5045588;28;20458;-75
2022/04/21 09:35:58;;;;;;;7.47;6.40;;;;;;;18.09;nan;98598.19;5058654;28;20590;-75
2022/04/21 09:38:24;;;;;;;7.00;5.97;;;;;;;18.24;nan;98595.69;5062039;28;20458;-75
2022/04/21 09:40:49;;;;;;;6.03;5.47;;;;;;;18.27;nan;98593.50;5061297;28;20803;-75
2022/04/21 09:43:27;;;;;;;7.53;5.70;;;;;;;18.37;nan;98588.00;5049820;28;20233;-74
2022/04/21 09:46:07;;;;;;;6.47;5.87;;;;;;;18.39;nan;98579.81;5052049;28;20229;-74
2022/04/21 09:48:33;;;;;;;7.60;6.67;;;;;;;18.47;nan;98580.63;5044006;28;20501;-75
2022/04/21 09:51:11;;;;;;;8.87;6.17;;;;;;;18.41;nan;98576.00;5051388;28;20951;-75
2022/04/21 09:53:53;;;;;;;7.90;6.30;;;;;;;18.44;nan;98572.16;5050858;28;20237;-74
2022/04/21 09:56:40;;;;;;;4.67;4.00;;;;;;;18.31;nan;98570.06;5044633;28;20520;-77
2022/04/21 09:59:08;;;;;;;7.00;6.30;;;;;;;18.27;nan;98566.91;5059166;28;20472;-75
2022/04/21 10:01:39;;;;;;;7.47;5.70;;;;;;;18.29;nan;98561.44;5051150;28;20475;-72
2022/04/21 10:04:12;;;;;;;6.43;5.73;;;;;;;18.43;nan;98547.41;5049502;28;20484;-74
2022/04/21 10:06:38;;;;;;;9.37;5.70;;;;;;;18.34;nan;98549.28;5055170;28;20456;-77
2022/04/21 10:09:05;;;;;;;12.27;6.67;;;;;;;18.18;nan;98543.22;5050225;28;20889;-74
2022/04/21 10:11:31;;;;;;;7.20;6.33;;;;;;;18.23;nan;98541.69;5043529;28;20706;-71
2022/04/21 10:13:56;;;;;;;7.40;6.60;;;;;;;18.42;nan;98536.97;5053261;28;20448;-73
2022/04/21 10:16:24;;;;;;;7.30;6.60;;;;;;;18.41;nan;98533.44;5052835;28;20291;-73
2022/04/21 10:18:52;;;;;;;8.33;7.37;;;;;;;18.48;nan;98525.63;5035152;28;20217;-74
2022/04/21 10:21:48;;;;;;;8.83;6.23;;;;;;;18.65;nan;98524.50;5053801;28;20463;-75
2022/04/21 10:24:20;;;;;;;6.90;6.20;;;;;;;18.78;nan;98514.16;5058623;28;20528;-74
2022/04/21 10:26:45;;;;;;;6.60;5.93;;;;;;;18.88;nan;98515.75;5036533;28;20710;-74
2022/04/21 10:29:21;;;;;;;7.40;6.37;;;;;;;19.04;nan;98515.63;5053742;28;20504;-75
2022/04/21 10:32:05;;;;;;;10.73;6.57;;;;;;;19.09;nan;98501.78;5044338;28;20363;-76
2022/04/21 10:34:34;;;;;;;8.23;6.60;;;;;;;19.01;nan;98497.38;5061026;28;20476;-75
2022/04/21 10:37:20;;;;;;;8.77;6.80;;;;;;;19.07;nan;98491.31;5053477;28;20763;-73
2022/04/21 10:40:07;;;;;;;8.53;6.10;;;;;;;19.06;nan;98480.84;5049679;28;20467;-75
2022/04/21 10:42:51;;;;;;;7.80;6.60;;;;;;;19.10;nan;98469.66;5043170;28;20479;-75
2022/04/21 10:45:22;;;;;;;9.10;6.50;;;;;;;19.07;nan;98467.38;5048638;28;20522;-75
2022/04/21 10:48:12;;;;;;;6.83;6.13;;;;;;;19.19;nan;98459.75;5059381;28;20583;-73
2022/04/21 10:50:39;;;;;;;7.03;6.07;;;;;;;19.20;nan;98464.94;5052750;28;20443;-74
2022/04/21 10:58:37;;;;;;;6.53;5.90;;;;;;;19.52;nan;98441.63;5049622;28;20459;-75
2022/04/21 11:01:09;;;;;;;6.67;5.97;;;;;;;19.49;nan;98449.16;5045616;28;20465;-75
2022/04/21 11:03:38;;;;;;;14.03;7.00;;;;;;;19.45;nan;98440.72;5046672;28;20236;-74
2022/04/21 11:06:11;;;;;;;7.97;7.20;;;;;;;19.35;nan;98430.31;5054583;28;20496;-75
2022/04/21 11:08:38;;;;;;;7.43;6.70;;;;;;;19.34;nan;98431.34;5060344;28;20535;-75
2022/04/21 11:11:04;;;;;;;6.93;5.93;;;;;;;19.38;nan;98429.94;5057331;28;20853;-74
2022/04/21 11:13:41;;;;;;;6.87;6.27;;;;;;;19.46;nan;98421.88;5040095;28;20463;-75
2022/04/21 11:16:06;;;;;;;9.00;5.80;;;;;;;19.37;nan;98424.81;5055164;28;20987;-75
2022/04/21 11:18:32;;;;;;;6.50;5.90;;;;;;;19.26;nan;98425.28;5056384;28;20433;-75
2022/04/21 11:21:23;;;;;;;8.13;7.33;;;;;;;19.20;nan;98418.84;5049005;28;20409;-74
2022/04/21 11:23:49;;;;;;;8.93;7.00;;;;;;;19.11;nan;98412.75;5061814;28;20226;-75
2022/04/21 11:26:14;;;;;;;8.63;6.20;;;;;;;19.09;nan;98412.13;5050954;28;20483;-75
2022/04/21 11:28:46;;;;;;;6.20;5.60;;;;;;;19.15;nan;98414.06;5048125;28;20309;-75
2022/04/21 11:31:13;;;;;;;13.37;6.37;;;;;;;19.07;nan;98408.81;5050039;28;20211;-75
2022/04/21 11:33:39;;;;;;;8.47;6.10;;;;;;;19.06;nan;98412.47;5062825;28;20425;-73
2022/04/21 11:36:09;;;;;;;8.43;6.00;;;;;;;19.09;nan;98393.50;5050273;28;20471;-75
2022/04/21 11:38:38;;;;;;;7.53;5.50;;;;;;;19.12;nan;98398.47;5056402;28;20547;-76
2022/04/21 11:41:05;;;;;;;8.13;5.83;;;;;;;19.10;nan;98387.16;5054153;28;20777;-74
2022/04/21 11:43:31;;;;;;;9.93;6.73;;;;;;;19.17;nan;98377.44;5057469;28;20490;-75
2022/04/21 11:46:02;;;;;;;9.93;5.60;;;;;;;19.17;nan;98374.78;5054735;28;20468;-75
2022/04/21 11:48:30;;;;;;;10.03;7.10;;;;;;;19.05;nan;98380.72;5057315;28;20463;-74
2022/04/21 11:50:55;;;;;;;8.73;6.20;;;;;;;18.95;nan;98375.66;5053472;28;20466;-74
2022/04/21 11:53:21;;;;;;;7.07;6.47;;;;;;;18.90;nan;98378.88;5036089;28;20456;-76
2022/04/21 11:55:48;;;;;;;8.57;6.73;;;;;;;18.88;nan;98364.94;5054480;28;20463;-74
2022/04/21 11:58:26;;;;;;;8.10;6.30;;;;;;;18.92;nan;98366.19;5058728;28;20296;-74
2022/04/21 12:06:31;;;;;;;7.70;6.03;;;;;;;18.93;nan;98364.34;5056051;28;20478;-75
2022/04/21 12:08:57;;;;;;;7.70;6.50;;;;;;;18.89;nan;98366.56;5055177;28;20484;-74
2022/04/21 12:11:23;;;;;;;5.60;5.10;;;;;;;18.94;nan;98352.72;5054445;28;20488;-74
2022/04/21 12:13:49;;;;;;;11.63;6.30;;;;;;;19.06;nan;98350.44;5056951;28;20221;-74
2022/04/21 12:16:44;;;;;;;6.73;5.17;;;;;;;19.11;nan;98348.88;5057602;28;20515;-74
2022/04/21 12:19:32;;;;;;;5.07;4.53;;;;;;;19.13;nan;98338.88;5056855;28;20523;-74
2022/04/21 12:22:09;;;;;;;6.50;5.93;;;;;;;19.17;nan;98344.66;5051090;28;20967;-75
2022/04/21 12:24:45;;;;;;;8.73;6.83;;;;;;;19.17;nan;98342.84;5054995;28;20502;-74
2022/04/21 12:27:20;;;;;;;7.53;6.07;;;;;;;19.13;nan;98336.22;5053593;28;20468;-74
2022/04/21 12:29:51;;;;;;;7.70;6.50;;;;;;;19.09;nan;98340.28;5057744;28;20451;-74
2022/04/21 12:32:25;;;;;;;9.87;6.50;;;;;;;19.10;nan;98327.78;5042339;28;20880;-74
2022/04/21 12:34:51;;;;;;;6.27;5.67;;;;;;;19.15;nan;98328.06;5055590;28;20484;-73
2022/04/21 12:37:30;;;;;;;7.20;6.50;;;;;;;19.15;nan;98326.22;5055769;28;20888;-73
2022/04/21 12:39:58;;;;;;;7.73;6.13;;;;;;;19.11;nan;98319.59;5053116;28;20824;-75
2022/04/21 12:42:24;;;;;;;6.23;5.50;;;;;;;19.17;nan;98316.22;5051802;28;20476;-74
2022/04/21 12:44:51;;;;;;;6.50;5.30;;;;;;;19.11;nan;98310.78;5056517;28;20523;-74
2022/04/21 12:47:21;;;;;;;8.10;5.83;;;;;;;19.12;nan;98305.28;5055569;28;20209;-74